createdAt,value
2019-04-14T00:01:56.579Z,1.10
2019-04-14T00:04:40.129Z,1.10
2019-04-14T00:07:40.628Z,1.10
2019-04-14T00:09:54.193Z,1.10
2019-04-14T00:12:23.315Z,1.10
2019-04-14T00:14:57.566Z,1.00
2019-04-14T00:17:45.645Z,1.00
2019-04-14T00:20:14.721Z,1.00
2019-04-14T00:22:44.604Z,1.00
2019-04-14T00:25:13.639Z,1.00
2019-04-14T00:27:45.118Z,1.00
2019-04-14T00:30:14.879Z,1.00
2019-04-14T00:32:48.771Z,0.90
2019-04-14T00:36:00.218Z,0.90
2019-04-14T00:38:43.427Z,0.90
2019-04-14T00:41:47.482Z,0.90
2019-04-14T00:44:36.506Z,0.90
2019-04-14T00:47:26.746Z,0.90
2019-04-14T00:49:57.170Z,0.80
2019-04-14T00:52:27.988Z,0.80
2019-04-14T00:55:05.422Z,0.80
2019-04-14T00:57:35.600Z,0.70
2019-04-14T01:00:23.928Z,0.70
2019-04-14T01:02:53.704Z,0.70
2019-04-14T01:05:24.115Z,0.70
2019-04-14T01:07:54.352Z,0.70
2019-04-14T01:10:23.637Z,0.70
2019-04-14T01:12:56.055Z,0.60
2019-04-14T01:15:26.802Z,0.60
2019-04-14T01:17:57.183Z,0.60
2019-04-14T01:20:32.187Z,0.60
2019-04-14T01:23:04.631Z,0.60
2019-04-14T01:25:38.870Z,0.60
2019-04-14T01:28:13.623Z,0.60
2019-04-14T01:30:43.743Z,0.50
2019-04-14T01:33:14.787Z,0.50
2019-04-14T01:35:44.356Z,0.50
2019-04-14T01:38:14.898Z,0.50
2019-04-14T01:40:44.584Z,0.50
2019-04-14T01:43:14.599Z,0.50
2019-04-14T01:45:44.862Z,0.40
2019-04-14T01:48:14.933Z,0.40
2019-04-14T01:51:22.394Z,0.40
2019-04-14T01:54:12.723Z,0.40
2019-04-14T01:57:00.785Z,0.40
2019-04-14T01:59:30.531Z,0.40
2019-04-14T02:02:07.523Z,0.40
2019-04-14T02:04:37.710Z,0.40
2019-04-14T02:07:08.026Z,0.40
2019-04-14T02:09:47.324Z,0.40
2019-04-14T02:12:19.566Z,0.40
2019-04-14T02:14:52.263Z,0.40
2019-04-14T02:17:22.058Z,0.40
2019-04-14T02:19:52.374Z,0.40
2019-04-14T02:22:22.385Z,0.40
2019-04-14T02:25:01.442Z,0.40
2019-04-14T02:27:31.721Z,0.40
2019-04-14T02:30:03.509Z,0.40
2019-04-14T02:32:56.801Z,0.40
2019-04-14T02:36:03.997Z,0.40
2019-04-14T02:40:57.668Z,0.30
2019-04-14T02:43:41.694Z,0.40
2019-04-14T02:45:57.795Z,0.30
2019-04-14T02:48:38.348Z,0.30
2019-04-14T02:51:13.767Z,0.30
2019-04-14T02:56:16.431Z,0.30
2019-04-14T03:01:44.966Z,0.30
2019-04-14T03:03:49.446Z,0.30
2019-04-14T03:06:41.575Z,0.30
2019-04-14T03:11:51.398Z,0.30
2019-04-14T03:14:31.205Z,0.30
2019-04-14T03:20:34.156Z,0.30
2019-04-14T03:23:19.214Z,0.30
2019-04-14T03:25:46.331Z,0.40
2019-04-14T03:28:37.812Z,0.30
2019-04-14T03:38:49.704Z,0.30
2019-04-14T03:41:27.382Z,0.30
2019-04-14T03:43:46.416Z,0.30
2019-04-14T03:46:27.516Z,0.20
2019-04-14T03:49:08.112Z,0.20
2019-04-14T03:51:44.641Z,0.20
2019-04-14T03:54:03.403Z,0.20
2019-04-14T03:57:02.306Z,0.10
2019-04-14T03:59:25.962Z,0.20
2019-04-14T04:01:56.443Z,0.20
2019-04-14T04:04:27.315Z,0.20
2019-04-14T04:07:10.514Z,0.20
2019-04-14T04:09:45.471Z,0.20
2019-04-14T04:12:37.915Z,0.20
2019-04-14T04:15:08.291Z,0.20
2019-04-14T04:17:51.690Z,0.20
2019-04-14T04:20:39.682Z,0.20
2019-04-14T04:23:27.088Z,0.20
2019-04-14T04:26:19.075Z,0.20
2019-04-14T04:29:00.489Z,0.30
2019-04-14T04:31:52.837Z,0.40
2019-04-14T04:34:44.468Z,0.40
2019-04-14T04:37:41.541Z,0.40
2019-04-14T04:40:17.907Z,0.40
2019-04-14T04:42:50.643Z,0.50
2019-04-14T04:45:25.676Z,0.50
2019-04-14T04:47:57.784Z,0.60
2019-04-14T04:50:28.689Z,0.60
2019-04-14T04:53:11.529Z,0.60
2019-04-14T04:55:55.695Z,0.70
2019-04-14T04:58:26.264Z,0.70
2019-04-14T05:00:57.356Z,0.60
2019-04-14T05:03:33.949Z,0.70
2019-04-14T05:06:28.774Z,0.70
2019-04-14T05:09:07.787Z,0.70
2019-04-14T05:11:43.027Z,0.70
2019-04-14T05:14:36.900Z,0.60
2019-04-14T05:17:10.174Z,0.70
2019-04-14T05:19:40.441Z,0.70
2019-04-14T05:22:14.835Z,0.70
2019-04-14T05:24:43.964Z,0.80
2019-04-14T05:27:13.199Z,0.80
2019-04-14T05:29:43.034Z,0.90
2019-04-14T05:32:13.722Z,1.00
2019-04-14T05:34:47.934Z,1.10
2019-04-14T05:37:13.892Z,1.10
2019-04-14T05:39:50.536Z,1.20
2019-04-14T05:42:23.815Z,1.30
2019-04-14T05:44:52.224Z,1.40
2019-04-14T05:47:24.069Z,1.40
2019-04-14T05:49:56.120Z,1.50
2019-04-14T05:52:25.178Z,1.50
2019-04-14T05:54:54.365Z,1.50
2019-04-14T05:57:24.239Z,1.60
2019-04-14T05:59:54.926Z,1.70
2019-04-14T06:02:24.765Z,1.70
2019-04-14T06:04:55.022Z,1.80
2019-04-14T06:07:25.179Z,1.80
2019-04-14T06:10:09.341Z,1.90
2019-04-14T06:12:44.581Z,1.90
2019-04-14T06:15:15.751Z,2.00
2019-04-14T06:17:45.087Z,2.10
2019-04-14T06:20:15.446Z,2.10
2019-04-14T06:22:46.054Z,2.10
2019-04-14T06:25:16.773Z,2.20
2019-04-14T06:27:52.867Z,2.20
2019-04-14T06:30:39.650Z,2.30
2019-04-14T06:33:31.427Z,2.30
2019-04-14T06:36:07.490Z,2.40
2019-04-14T06:38:38.753Z,2.50
2019-04-14T06:41:22.970Z,2.50
2019-04-14T06:44:03.730Z,2.60
2019-04-14T06:46:33.122Z,2.60
2019-04-14T06:49:11.917Z,2.60
2019-04-14T06:51:47.424Z,2.70
2019-04-14T06:54:22.959Z,2.70
2019-04-14T06:56:56.716Z,2.80
2019-04-14T06:59:43.626Z,2.80
2019-04-14T07:02:14.182Z,2.90
2019-04-14T07:04:43.414Z,3.00
2019-04-14T07:07:12.466Z,3.10
2019-04-14T07:09:41.754Z,3.20
2019-04-14T07:12:10.768Z,3.20
2019-04-14T07:14:41.374Z,3.30
2019-04-14T07:17:10.446Z,3.40
2019-04-14T07:19:42.986Z,3.50
2019-04-14T07:22:15.419Z,3.60
2019-04-14T07:24:44.487Z,3.70
2019-04-14T07:27:13.541Z,3.80
2019-04-14T07:29:57.537Z,3.90
2019-04-14T07:32:51.774Z,4.00
2019-04-14T07:35:41.976Z,4.10
2019-04-14T07:38:30.348Z,4.30
2019-04-14T07:41:23.179Z,4.50
2019-04-14T07:44:03.376Z,4.60
2019-04-14T07:46:41.275Z,4.80
2019-04-14T07:49:22.758Z,4.90
2019-04-14T07:52:18.868Z,4.90
2019-04-14T07:54:56.354Z,4.90
2019-04-14T07:57:50.517Z,5.00
2019-04-14T08:00:37.126Z,5.00
2019-04-14T08:03:15.471Z,5.10
2019-04-14T08:05:44.560Z,5.20
2019-04-14T08:08:13.632Z,5.20
2019-04-14T08:10:42.734Z,5.20
2019-04-14T08:13:18.440Z,5.10
2019-04-14T08:15:49.059Z,5.20
2019-04-14T08:18:18.281Z,5.20
2019-04-14T08:24:25.209Z,5.20
2019-04-14T08:26:54.285Z,5.20
2019-04-14T08:29:24.965Z,5.20
2019-04-14T08:31:54.034Z,5.30
2019-04-14T08:34:23.339Z,5.30
2019-04-14T08:36:53.829Z,5.30
2019-04-14T08:39:46.406Z,5.40
2019-04-14T08:42:43.837Z,5.50
2019-04-14T08:45:26.552Z,5.50
2019-04-14T08:48:10.806Z,5.50
2019-04-14T08:50:51.226Z,5.60
2019-04-14T08:53:38.022Z,5.60
2019-04-14T08:56:44.968Z,5.70
2019-04-14T08:59:18.948Z,5.80
2019-04-14T09:02:07.936Z,5.90
2019-04-14T09:04:53.997Z,6.30
2019-04-14T09:07:27.100Z,7.40
2019-04-14T09:10:14.025Z,8.50
2019-04-14T09:12:51.989Z,9.30
2019-04-14T09:15:21.878Z,10.00
2019-04-14T09:17:50.926Z,10.50
2019-04-14T09:20:26.312Z,11.10
2019-04-14T09:22:59.370Z,11.60
2019-04-14T09:25:29.078Z,12.10
2019-04-14T09:27:58.139Z,12.20
2019-04-14T09:30:27.182Z,12.50
2019-04-14T09:32:58.599Z,13.00
2019-04-14T09:35:27.905Z,13.20
2019-04-14T09:37:58.083Z,13.20
2019-04-14T09:40:32.841Z,13.20
2019-04-14T09:43:17.853Z,13.40
2019-04-14T09:45:48.089Z,13.60
2019-04-14T09:48:21.415Z,13.70
2019-04-14T09:51:03.899Z,13.40
2019-04-14T09:53:23.822Z,12.70
2019-04-14T09:55:54.782Z,11.90
2019-04-14T09:58:31.414Z,11.50
2019-04-14T10:01:03.102Z,11.30
2019-04-14T10:03:51.624Z,11.50
2019-04-14T10:06:17.987Z,11.70
2019-04-14T10:08:52.586Z,11.50
2019-04-14T10:11:21.781Z,11.50
2019-04-14T10:13:51.855Z,11.70
2019-04-14T10:16:21.422Z,11.70
2019-04-14T10:18:50.690Z,11.50
2019-04-14T10:21:19.730Z,11.50
2019-04-14T10:23:50.648Z,11.90
2019-04-14T10:26:19.654Z,12.10
2019-04-14T10:28:50.778Z,12.10
2019-04-14T10:31:20.294Z,11.80
2019-04-14T10:33:50.818Z,11.50
2019-04-14T10:36:43.424Z,11.10
2019-04-14T10:39:14.055Z,10.90
2019-04-14T10:41:43.042Z,10.90
2019-04-14T10:44:12.754Z,10.90
2019-04-14T10:46:41.818Z,11.10
2019-04-14T10:49:11.659Z,11.40
2019-04-14T10:51:41.821Z,11.60
2019-04-14T10:54:14.734Z,11.70
2019-04-14T10:56:46.678Z,11.80
2019-04-14T10:59:21.770Z,12.20
2019-04-14T11:01:50.842Z,12.40
2019-04-14T11:04:19.850Z,12.50
2019-04-14T11:07:11.792Z,12.70
2019-04-14T11:09:40.875Z,12.80
2019-04-14T11:12:10.202Z,12.40
2019-04-14T11:14:40.010Z,12.20
2019-04-14T11:17:29.062Z,11.90
2019-04-14T11:20:00.309Z,11.50
2019-04-14T11:22:36.034Z,11.40
2019-04-14T11:25:05.567Z,11.30
2019-04-14T11:27:36.918Z,11.20
2019-04-14T11:30:07.749Z,11.20
2019-04-14T11:32:50.874Z,11.30
2019-04-14T11:35:43.569Z,11.20
2019-04-14T11:38:35.571Z,11.10
2019-04-14T11:41:08.896Z,11.20
2019-04-14T11:43:38.050Z,11.40
2019-04-14T11:46:11.688Z,11.60
2019-04-14T11:48:38.481Z,11.80
2019-04-14T11:51:19.934Z,11.80
2019-04-14T11:53:48.997Z,11.80
2019-04-14T11:56:19.472Z,11.70
2019-04-14T11:58:54.959Z,11.60
2019-04-14T12:01:46.173Z,11.70
2019-04-14T12:04:34.185Z,11.70
2019-04-14T12:07:19.805Z,11.60
2019-04-14T12:10:00.626Z,11.70
2019-04-14T12:12:36.812Z,11.60
2019-04-14T12:15:07.691Z,11.60
2019-04-14T12:17:36.853Z,11.70
2019-04-14T12:20:07.455Z,11.80
2019-04-14T12:22:36.542Z,11.90
2019-04-14T12:25:12.773Z,12.00
2019-04-14T12:27:51.651Z,12.10
2019-04-14T12:30:29.027Z,12.10
2019-04-14T12:32:58.223Z,12.10
2019-04-14T12:35:35.431Z,12.00
2019-04-14T12:38:04.500Z,12.20
2019-04-14T12:40:52.441Z,12.30
2019-04-14T12:43:53.407Z,12.30
2019-04-14T12:46:44.206Z,12.30
2019-04-14T12:49:33.274Z,12.00
2019-04-14T12:52:25.318Z,11.90
2019-04-14T12:54:58.608Z,11.90
2019-04-14T12:57:47.638Z,11.80
2019-04-14T13:00:22.593Z,11.70
2019-04-14T13:03:00.593Z,11.60
2019-04-14T13:05:34.213Z,11.60
2019-04-14T13:08:13.493Z,11.60
2019-04-14T13:10:39.277Z,11.60
2019-04-14T13:13:13.509Z,11.80
2019-04-14T13:15:42.577Z,11.90
2019-04-14T13:18:11.618Z,11.90
2019-04-14T13:20:44.620Z,11.70
2019-04-14T13:26:01.822Z,11.40
2019-04-14T13:28:34.931Z,11.60
2019-04-14T13:31:03.966Z,11.80
2019-04-14T13:33:33.095Z,12.00
2019-04-14T13:36:03.219Z,12.10
2019-04-14T13:38:34.029Z,12.20
2019-04-14T13:41:07.136Z,12.40
2019-04-14T13:43:36.225Z,12.50
2019-04-14T13:46:06.139Z,12.40
2019-04-14T13:48:36.881Z,12.10
2019-04-14T13:51:10.458Z,12.00
2019-04-14T13:53:45.000Z,12.10
2019-04-14T13:56:15.699Z,12.20
2019-04-14T13:58:44.754Z,12.20
2019-04-14T14:01:29.122Z,12.20
2019-04-14T14:03:58.807Z,12.30
2019-04-14T14:06:27.866Z,12.30
2019-04-14T14:08:58.912Z,12.20
2019-04-14T14:11:50.704Z,12.30
2019-04-14T14:14:38.090Z,12.40
2019-04-14T14:17:34.904Z,12.40
2019-04-14T14:20:28.091Z,12.50
2019-04-14T14:23:35.737Z,12.60
2019-04-14T14:26:09.575Z,12.70
2019-04-14T14:31:26.751Z,12.70
2019-04-14T14:33:55.735Z,12.70
2019-04-14T14:36:25.073Z,12.70
2019-04-14T14:38:55.739Z,12.80
2019-04-14T14:41:24.744Z,12.80
2019-04-14T14:43:54.125Z,12.70
2019-04-14T14:46:48.281Z,12.70
2019-04-14T14:49:56.281Z,12.50
2019-04-14T14:52:25.361Z,12.40
2019-04-14T14:54:55.638Z,12.40
2019-04-14T14:57:35.575Z,12.40
2019-04-14T15:00:28.294Z,12.50
2019-04-14T15:02:57.603Z,12.50
2019-04-14T15:05:46.718Z,12.40
2019-04-14T15:08:19.543Z,12.30
2019-04-14T15:10:55.883Z,12.40
2019-04-14T15:13:26.519Z,12.50
2019-04-14T15:16:04.718Z,12.60
2019-04-14T15:18:33.743Z,12.60
2019-04-14T15:21:05.546Z,12.50
2019-04-14T15:23:55.374Z,12.40
2019-04-14T15:26:24.440Z,12.40
2019-04-14T15:28:54.702Z,12.40
2019-04-14T15:31:33.047Z,12.50
2019-04-14T15:34:02.113Z,12.60
2019-04-14T15:36:32.015Z,12.80
2019-04-14T15:39:01.107Z,12.90
2019-04-14T15:41:31.294Z,12.90
2019-04-14T15:44:00.414Z,12.80
2019-04-14T15:46:30.333Z,12.70
2019-04-14T15:48:59.395Z,12.40
2019-04-14T15:51:35.020Z,12.30
2019-04-14T15:54:04.102Z,12.20
2019-04-14T15:56:57.992Z,12.20
2019-04-14T15:59:38.249Z,12.30
2019-04-14T16:02:32.315Z,12.40
2019-04-14T16:05:23.087Z,12.50
2019-04-14T16:08:21.154Z,12.50
2019-04-14T16:11:01.632Z,12.40
2019-04-14T16:13:54.138Z,12.30
2019-04-14T16:17:10.345Z,12.10
2019-04-14T16:19:46.826Z,11.90
2019-04-14T16:26:27.264Z,11.60
2019-04-14T16:29:04.832Z,11.70
2019-04-14T16:31:49.250Z,11.80
2019-04-14T16:34:37.269Z,11.80
2019-04-14T16:37:06.341Z,11.90
2019-04-14T16:39:35.408Z,11.90
2019-04-14T16:42:04.483Z,11.90
2019-04-14T16:44:45.035Z,12.00
2019-04-14T16:47:14.177Z,11.90
2019-04-14T16:49:49.101Z,11.90
2019-04-14T16:52:35.795Z,11.90
2019-04-14T16:55:39.062Z,11.80
2019-04-14T16:58:36.028Z,11.70
2019-04-14T17:01:13.362Z,11.50
2019-04-14T17:03:42.656Z,11.50
2019-04-14T17:06:27.552Z,11.40
2019-04-14T17:09:02.267Z,11.40
2019-04-14T17:11:35.111Z,11.40
2019-04-14T17:14:22.295Z,11.30
2019-04-14T17:17:09.239Z,11.30
2019-04-14T17:20:04.562Z,11.30
2019-04-14T17:23:00.673Z,11.20
2019-04-14T17:25:37.478Z,11.20
2019-04-14T17:28:14.786Z,11.10
2019-04-14T17:31:13.640Z,11.00
2019-04-14T17:33:53.217Z,11.00
2019-04-14T17:36:39.062Z,11.00
2019-04-14T17:39:40.218Z,11.00
2019-04-14T17:42:30.438Z,10.90
2019-04-14T17:45:07.510Z,10.90
2019-04-14T17:48:03.234Z,10.80
2019-04-14T17:51:12.314Z,10.70
2019-04-14T17:54:01.786Z,10.60
2019-04-14T17:56:51.305Z,10.50
2019-04-14T17:59:40.978Z,10.40
2019-04-14T18:02:20.199Z,10.30
2019-04-14T18:05:06.826Z,10.20
2019-04-14T18:07:48.316Z,10.20
2019-04-14T18:10:25.140Z,10.10
2019-04-14T18:13:14.035Z,10.00
2019-04-14T18:16:02.473Z,9.90
2019-04-14T18:18:51.643Z,9.80
2019-04-14T18:21:23.614Z,9.70
2019-04-14T18:23:52.725Z,9.70
2019-04-14T18:26:23.472Z,9.60
2019-04-14T18:29:20.786Z,9.50
2019-04-14T18:32:08.850Z,9.50
2019-04-14T18:34:57.020Z,9.40
2019-04-14T18:37:54.157Z,9.30
2019-04-14T18:40:31.462Z,9.10
2019-04-14T18:43:28.112Z,9.00
2019-04-14T18:46:19.163Z,8.90
2019-04-14T18:49:00.104Z,8.80
2019-04-14T18:51:37.082Z,8.80
2019-04-14T18:54:28.617Z,8.70
2019-04-14T18:57:32.740Z,8.60
2019-04-14T19:00:22.644Z,8.60
2019-04-14T19:02:51.749Z,8.50
2019-04-14T19:05:23.599Z,8.40
2019-04-14T19:07:52.870Z,8.30
2019-04-14T19:10:34.460Z,8.30
2019-04-14T19:13:13.745Z,8.20
2019-04-14T19:15:50.058Z,8.10
2019-04-14T19:18:41.957Z,8.00
2019-04-14T19:21:19.041Z,7.90
2019-04-14T19:23:53.192Z,7.90
2019-04-14T19:26:22.706Z,7.80
2019-04-14T19:28:57.875Z,7.70
2019-04-14T19:31:26.926Z,7.70
2019-04-14T19:33:56.157Z,7.60
2019-04-14T19:36:27.403Z,7.60
2019-04-14T19:38:58.617Z,7.50
2019-04-14T19:41:32.270Z,7.50
2019-04-14T19:44:01.329Z,7.50
2019-04-14T19:46:30.430Z,7.40
2019-04-14T19:48:59.679Z,7.40
2019-04-14T19:51:31.138Z,7.30
2019-04-14T19:54:00.112Z,7.30
2019-04-14T19:56:32.748Z,7.20
2019-04-14T19:59:02.020Z,7.20
2019-04-14T20:01:31.074Z,7.10
2019-04-14T20:04:00.143Z,7.10
2019-04-14T20:06:29.225Z,7.00
2019-04-14T20:09:00.285Z,7.00
2019-04-14T20:11:36.807Z,7.00
2019-04-14T20:14:07.042Z,6.90
2019-04-14T20:16:48.414Z,6.90
2019-04-14T20:19:36.505Z,6.90
2019-04-14T20:22:15.208Z,6.80
2019-04-14T20:24:54.077Z,6.80
2019-04-14T20:27:34.325Z,6.70
2019-04-14T20:30:11.302Z,6.70
2019-04-14T20:32:41.346Z,6.70
2019-04-14T20:35:14.558Z,6.80
2019-04-14T20:37:44.855Z,6.80
2019-04-14T20:40:16.163Z,6.80
2019-04-14T20:42:45.480Z,6.90
2019-04-14T20:45:15.502Z,7.00
2019-04-14T20:47:45.837Z,7.10
2019-04-14T20:50:17.182Z,7.10
2019-04-14T20:52:48.870Z,7.20
2019-04-14T20:55:22.652Z,7.20
2019-04-14T20:57:51.502Z,7.20
2019-04-14T21:00:20.865Z,7.30
2019-04-14T21:03:25.831Z,7.30
2019-04-14T21:06:16.714Z,7.30
2019-04-14T21:09:05.245Z,7.30
2019-04-14T21:11:54.055Z,7.30
2019-04-14T21:14:44.723Z,7.40
2019-04-14T21:17:25.861Z,7.40
2019-04-14T21:20:27.636Z,7.40
2019-04-14T21:23:21.608Z,7.40
2019-04-14T21:26:00.801Z,7.40
2019-04-14T21:28:43.633Z,7.40
2019-04-14T21:31:39.667Z,7.50
2019-04-14T21:34:14.223Z,7.50
2019-04-14T21:37:33.913Z,7.50
2019-04-14T21:40:24.096Z,7.50
2019-04-14T21:42:52.596Z,7.50
2019-04-14T21:45:21.918Z,7.50
2019-04-14T21:47:52.623Z,7.50
2019-04-14T21:50:24.006Z,7.50
2019-04-14T21:52:53.390Z,7.50
2019-04-14T21:55:26.925Z,7.50
2019-04-14T21:58:01.558Z,7.50
2019-04-14T22:01:24.830Z,7.50
2019-04-14T22:04:03.006Z,7.50
2019-04-14T22:06:37.991Z,7.50
2019-04-14T22:09:13.667Z,7.50
2019-04-14T22:11:42.736Z,7.50
2019-04-14T22:14:11.799Z,7.50
2019-04-14T22:16:40.775Z,7.50
2019-04-14T22:19:15.390Z,7.50
2019-04-14T22:21:47.314Z,7.50
2019-04-14T22:24:15.380Z,7.50
2019-04-14T22:26:44.461Z,7.50
2019-04-14T22:29:13.418Z,7.50
2019-04-14T22:31:42.827Z,7.50
2019-04-14T22:34:23.178Z,7.40
2019-04-14T22:36:56.795Z,7.40
2019-04-14T22:39:26.253Z,7.40
2019-04-14T22:41:55.399Z,7.40
2019-04-14T22:44:24.461Z,7.40
2019-04-14T22:47:11.961Z,7.40
2019-04-14T22:49:44.277Z,7.30
2019-04-14T22:52:17.967Z,7.30
2019-04-14T22:54:47.070Z,7.30
2019-04-14T22:57:16.029Z,7.30
2019-04-14T23:02:59.702Z,7.30
2019-04-14T23:05:39.712Z,7.30
2019-04-14T23:08:53.379Z,7.30
2019-04-14T23:11:50.574Z,7.30
2019-04-14T23:14:30.321Z,7.30
2019-04-14T23:17:16.526Z,7.30
2019-04-14T23:20:32.179Z,7.30
2019-04-14T23:23:18.725Z,7.20
2019-04-14T23:25:47.997Z,7.20
2019-04-14T23:28:26.753Z,7.20
2019-04-14T23:31:10.548Z,7.20
2019-04-14T23:33:39.594Z,7.20
2019-04-14T23:36:12.782Z,7.10
2019-04-14T23:38:45.444Z,7.10
2019-04-14T23:41:14.445Z,7.00
2019-04-14T23:43:44.051Z,6.90
2019-04-14T23:46:14.458Z,6.90
2019-04-14T23:48:43.478Z,6.90
2019-04-14T23:51:12.558Z,6.80
2019-04-14T23:53:52.222Z,6.80
2019-04-14T23:56:12.522Z,6.80
2019-04-14T23:58:44.207Z,6.80
